Time;durP1;ratioP1;P1;durP2;ratioP2;P2;SDS_P1;SDS_P2;PMS_P1;PMS_P2;Temp;Humidity;BMP_temperature;BMP_pressure;BME280_temperature;BME280_humidity;BME280_pressure;Samples;Min_cycle;Max_cycle;Signal;HPM_P1;HPM_P2
2022/05/27 00:00:41;;;;;;;8.52;2.80;;;;;;;14.72;73.56;101931.66;5111472;28;20479;-68
2022/05/27 00:03:08;;;;;;;5.47;2.75;;;;;;;14.74;73.72;101926.97;5110178;28;20126;-74
2022/05/27 00:05:33;;;;;;;6.55;2.35;;;;;;;14.74;73.45;101921.50;5101493;28;20445;-71
2022/05/27 00:07:59;;;;;;;6.75;2.60;;;;;;;14.74;73.37;101912.41;5101466;28;20036;-66
2022/05/27 00:10:24;;;;;;;8.00;2.47;;;;;;;14.72;73.57;101909.75;5096415;28;20490;-66
2022/05/27 00:12:49;;;;;;;5.53;2.50;;;;;;;14.71;73.99;101912.63;5105345;28;20066;-71
2022/05/27 00:15:15;;;;;;;6.65;2.25;;;;;;;14.72;73.78;101911.63;5095493;28;20019;-73
2022/05/27 00:17:40;;;;;;;5.30;2.38;;;;;;;14.71;73.78;101909.88;5099477;28;20031;-75
2022/05/27 00:20:06;;;;;;;6.00;2.67;;;;;;;14.70;73.76;101909.00;5100435;28;20023;-65
2022/05/27 00:22:32;;;;;;;5.75;2.70;;;;;;;14.70;73.80;101899.91;5104170;28;20122;-71
2022/05/27 00:24:57;;;;;;;3.85;2.17;;;;;;;14.70;73.28;101899.91;5108362;28;20221;-69
2022/05/27 00:27:22;;;;;;;9.50;2.60;;;;;;;14.68;73.88;101900.00;5105838;28;20031;-71
2022/05/27 00:29:48;;;;;;;4.03;2.30;;;;;;;14.67;73.93;101906.47;5096354;28;20032;-66
2022/05/27 00:32:13;;;;;;;5.80;2.65;;;;;;;14.69;74.11;101901.78;5105074;28;20475;-71
2022/05/27 00:34:38;;;;;;;8.00;2.63;;;;;;;14.71;74.50;101904.41;5111007;28;20031;-71
2022/05/27 00:37:05;;;;;;;9.18;2.58;;;;;;;14.67;74.65;101901.00;5110672;28;20043;-66
2022/05/27 00:39:31;;;;;;;6.05;2.67;;;;;;;14.68;74.90;101904.59;5110850;28;20035;-70
2022/05/27 00:41:56;;;;;;;7.97;3.22;;;;;;;14.64;74.41;101900.34;5106793;28;20520;-70
2022/05/27 00:44:21;;;;;;;5.65;2.45;;;;;;;14.63;74.53;101899.47;5107328;28;20642;-71
2022/05/27 00:46:47;;;;;;;9.85;3.25;;;;;;;14.65;75.00;101902.13;5110857;28;20040;-73
2022/05/27 00:49:23;;;;;;;6.95;2.80;;;;;;;14.67;74.65;101898.25;5108935;28;20058;-65
2022/05/27 00:51:53;;;;;;;4.97;2.55;;;;;;;14.67;74.47;101895.53;5110344;28;20023;-72
2022/05/27 00:54:22;;;;;;;7.72;3.25;;;;;;;14.63;75.45;101896.72;5107420;28;20032;-69
2022/05/27 00:56:54;;;;;;;11.73;3.95;;;;;;;14.63;75.53;101893.13;5106586;28;20039;-68
2022/05/27 00:59:26;;;;;;;7.20;3.10;;;;;;;14.60;76.16;101894.22;5108704;28;20036;-66
2022/05/27 01:01:52;;;;;;;11.15;3.38;;;;;;;14.54;76.50;101892.78;5109856;28;20285;-73
2022/05/27 01:04:18;;;;;;;8.55;2.92;;;;;;;14.48;77.21;101887.75;5109736;28;20062;-69
2022/05/27 01:06:45;;;;;;;6.28;3.20;;;;;;;14.47;76.83;101888.72;5109979;28;20114;-66
2022/05/27 01:09:13;;;;;;;10.63;3.40;;;;;;;14.46;77.24;101889.72;5108557;28;20031;-70
2022/05/27 01:11:57;;;;;;;7.70;3.10;;;;;;;14.42;77.20;101890.06;5106046;28;20034;-71
2022/05/27 01:14:34;;;;;;;10.45;3.97;;;;;;;14.40;77.98;101889.28;5108244;27;20038;-71
2022/05/27 01:17:15;;;;;;;9.57;3.75;;;;;;;14.36;78.74;101888.63;5109995;28;20057;-65
2022/05/27 01:20:18;;;;;;;10.88;3.75;;;;;;;14.35;78.30;101889.59;5110199;28;20036;-66
2022/05/27 01:23:20;;;;;;;7.35;3.53;;;;;;;14.29;78.03;101879.09;5108706;28;20092;-66
2022/05/27 01:25:54;;;;;;;10.98;4.32;;;;;;;14.24;79.83;101887.63;5093686;28;20077;-70
2022/05/27 01:28:45;;;;;;;10.77;3.97;;;;;;;14.18;79.43;101882.59;5094879;28;20678;-67
2022/05/27 01:31:26;;;;;;;14.90;4.38;;;;;;;14.16;80.98;101881.81;5103862;28;20039;-66
2022/05/27 01:34:18;;;;;;;14.32;4.13;;;;;;;14.15;80.16;101882.81;5109374;28;20110;-71
2022/05/27 01:36:56;;;;;;;10.07;4.78;;;;;;;14.14;80.92;101880.19;5107280;28;20036;-66
2022/05/27 01:40:08;;;;;;;11.82;4.28;;;;;;;14.12;80.29;101879.41;5108960;28;20063;-68
2022/05/27 01:42:58;;;;;;;9.10;4.72;;;;;;;14.10;80.75;101885.00;5097369;28;20039;-65
2022/05/27 01:45:34;;;;;;;10.20;4.70;;;;;;;14.04;82.03;101878.13;5109205;28;20523;-70
2022/05/27 01:48:03;;;;;;;10.68;4.57;;;;;;;14.03;82.57;101881.84;5108630;28;20030;-70
2022/05/27 01:50:36;;;;;;;10.55;4.43;;;;;;;14.01;82.34;101883.78;5109451;28;20055;-66
2022/05/27 01:53:19;;;;;;;8.77;4.82;;;;;;;13.97;83.32;101881.38;5108819;28;20550;-69
2022/05/27 01:55:58;;;;;;;13.15;4.28;;;;;;;13.93;82.95;101888.91;5105989;28;20031;-67
2022/05/27 01:58:39;;;;;;;11.40;4.50;;;;;;;13.90;83.19;101877.34;5106037;28;20518;-71
2022/05/27 02:01:09;;;;;;;14.65;5.18;;;;;;;13.84;82.84;101877.75;5107053;28;20039;-71
2022/05/27 02:04:01;;;;;;;17.38;5.15;;;;;;;13.81;83.96;101880.72;5102700;28;20035;-68
2022/05/27 02:06:45;;;;;;;9.35;5.32;;;;;;;13.79;84.20;101883.53;5095814;28;20419;-65
2022/05/27 02:09:20;;;;;;;17.88;6.22;;;;;;;13.78;84.50;101890.00;5101518;28;20063;-72
2022/05/27 02:11:49;;;;;;;16.75;5.43;;;;;;;13.75;84.59;101873.78;5099025;28;20039;-72
2022/05/27 02:14:26;;;;;;;8.80;4.65;;;;;;;13.74;84.61;101881.13;5104817;28;20089;-72
2022/05/27 02:17:01;;;;;;;9.52;5.28;;;;;;;13.74;84.74;101888.44;5106571;28;20144;-71
2022/05/27 02:19:40;;;;;;;15.70;5.70;;;;;;;13.71;85.83;101885.94;5107234;28;20043;-70
2022/05/27 02:22:16;;;;;;;16.45;5.88;;;;;;;13.73;85.90;101897.63;5095675;28;20035;-71
2022/05/27 02:24:54;;;;;;;10.20;5.18;;;;;;;13.73;86.09;101890.31;5092805;28;20075;-68
2022/05/27 02:27:26;;;;;;;15.00;6.00;;;;;;;13.75;85.44;101888.31;5101550;28;20043;-68
2022/05/27 02:29:58;;;;;;;19.50;6.20;;;;;;;13.70;85.41;101876.84;5107179;28;20035;-66
2022/05/27 02:32:29;;;;;;;9.70;5.50;;;;;;;13.74;85.31;101880.25;5106590;28;20565;-69
2022/05/27 02:35:10;;;;;;;9.75;5.38;;;;;;;13.76;84.97;101870.09;5107158;28;20181;-64
2022/05/27 02:37:48;;;;;;;14.07;6.65;;;;;;;13.75;85.64;101873.78;5106336;28;20035;-70
2022/05/27 02:58:20;;;;;;;12.45;6.93;;;;;;;13.57;86.55;101856.81;5677179;23;20398;-88
2022/05/27 03:00:46;;;;;;;14.05;7.60;;;;;;;13.65;87.31;101864.47;4987232;28;20033;-88
2022/05/27 03:03:11;;;;;;;11.30;7.38;;;;;;;13.65;87.45;101856.25;5026598;28;20045;-86
2022/05/27 03:05:58;;;;;;;11.70;6.60;;;;;;;13.61;87.28;101868.38;5026179;28;20025;-87
2022/05/27 03:08:37;;;;;;;10.20;7.35;;;;;;;13.63;86.53;101867.31;5009501;28;20029;-89
2022/05/27 03:11:08;;;;;;;12.38;7.18;;;;;;;13.66;87.11;101866.22;4988590;28;20063;-89
2022/05/27 03:13:42;;;;;;;14.00;7.55;;;;;;;13.63;86.85;101856.38;4991350;28;20433;-89
2022/05/27 03:16:31;;;;;;;12.10;7.70;;;;;;;13.66;88.03;101871.69;5009314;28;20060;-90
2022/05/27 03:19:05;;;;;;;16.25;8.88;;;;;;;13.53;89.28;101896.28;5006416;28;20124;-88
2022/05/27 03:21:40;;;;;;;12.55;6.53;;;;;;;13.43;88.55;101898.75;5027900;28;20088;-86
2022/05/27 03:24:11;;;;;;;7.40;4.55;;;;;;;13.38;87.80;101883.63;5001604;28;20038;-90
2022/05/27 03:26:55;;;;;;;9.57;4.13;;;;;;;13.38;86.38;101891.81;5001177;28;20496;-87
2022/05/27 03:29:44;;;;;;;7.03;3.60;;;;;;;13.42;86.82;101880.59;5007265;28;20044;-86
2022/05/27 03:32:17;;;;;;;9.75;3.22;;;;;;;13.41;86.84;101880.69;5022546;28;20033;-87
2022/05/27 03:34:58;;;;;;;9.48;2.78;;;;;;;13.40;85.94;101870.75;5015447;28;20078;-88
2022/05/27 03:37:50;;;;;;;3.53;2.15;;;;;;;13.36;86.05;101871.94;5007905;28;20034;-88
2022/05/27 03:40:23;;;;;;;5.93;2.70;;;;;;;13.40;85.23;101885.28;5023987;28;20034;-88
2022/05/27 03:42:50;;;;;;;10.00;2.30;;;;;;;13.36;86.41;101885.59;5002545;28;20116;-87
2022/05/27 03:45:19;;;;;;;3.58;2.20;;;;;;;13.28;85.97;101876.03;5017648;28;20041;-88
2022/05/27 03:47:45;;;;;;;4.13;2.45;;;;;;;13.24;86.56;101865.44;5029434;28;20160;-89
2022/05/27 03:50:15;;;;;;;4.00;2.17;;;;;;;13.23;86.48;101875.47;5030517;28;20036;-88
2022/05/27 03:52:44;;;;;;;5.07;2.42;;;;;;;13.26;86.15;101864.34;5004502;28;20468;-87
2022/05/27 03:55:13;;;;;;;6.28;2.90;;;;;;;13.26;86.42;101871.69;5025077;28;20116;-87
2022/05/27 03:57:39;;;;;;;4.20;2.55;;;;;;;13.27;86.48;101862.50;5014368;28;20175;-88
2022/05/27 04:00:06;;;;;;;3.80;2.80;;;;;;;13.27;86.72;101871.56;4979633;28;20116;-88
2022/05/27 04:02:38;;;;;;;6.40;2.78;;;;;;;13.24;86.62;101860.88;5021921;28;20064;-87
2022/05/27 04:05:04;;;;;;;5.88;2.90;;;;;;;13.28;86.71;101856.91;5029919;28;20033;-88
2022/05/27 04:07:30;;;;;;;5.07;3.28;;;;;;;13.34;86.68;101862.97;4995783;28;20043;-85
2022/05/27 04:09:56;;;;;;;5.05;3.35;;;;;;;13.32;87.24;101856.72;5029816;28;20025;-84
2022/05/27 04:12:21;;;;;;;6.13;3.22;;;;;;;13.40;87.36;101865.28;5000132;28;20052;-87
2022/05/27 04:14:50;;;;;;;10.52;3.67;;;;;;;13.46;86.66;101876.66;5028627;28;20349;-88
2022/05/27 04:17:27;;;;;;;8.95;3.72;;;;;;;13.47;86.82;101870.22;5011902;28;20030;-88
2022/05/27 04:19:53;;;;;;;8.55;3.63;;;;;;;13.52;86.89;101869.88;5010849;28;20061;-87
2022/05/27 04:22:19;;;;;;;7.50;3.78;;;;;;;13.58;86.20;101877.69;5030072;28;20099;-88
2022/05/27 04:24:44;;;;;;;6.82;4.00;;;;;;;13.57;87.05;101875.03;5012150;28;20204;-87
2022/05/27 04:27:16;;;;;;;6.30;3.90;;;;;;;13.55;85.87;101872.44;5009550;28;20513;-87
2022/05/27 04:29:46;;;;;;;8.00;4.55;;;;;;;13.61;86.53;101882.94;5014455;28;20042;-87
2022/05/27 04:32:13;;;;;;;7.13;4.35;;;;;;;13.61;86.71;101880.19;5028408;28;20068;-88
2022/05/27 04:34:39;;;;;;;7.70;4.20;;;;;;;13.65;87.46;101889.94;5027281;28;20106;-88
2022/05/27 04:37:05;;;;;;;8.65;4.68;;;;;;;13.63;87.31;101881.00;5004482;28;20061;-86
2022/05/27 04:39:31;;;;;;;13.05;5.72;;;;;;;13.64;88.05;101888.19;4990072;28;20087;-88
2022/05/27 04:41:56;;;;;;;12.60;5.45;;;;;;;13.64;88.22;101880.00;5012540;28;20111;-86
2022/05/27 04:44:22;;;;;;;11.07;5.68;;;;;;;13.67;88.64;101878.94;5024329;28;20042;-86
2022/05/27 04:46:47;;;;;;;9.65;5.53;;;;;;;13.77;87.47;101882.78;5008571;28;20484;-86
2022/05/27 04:49:50;;;;;;;11.50;5.47;;;;;;;13.79;87.64;101868.00;5015559;28;20101;-87
2022/05/27 04:51:58;;;;;;;11.10;5.28;;;;;;;13.94;88.11;101881.56;4993306;28;20036;-87
2022/05/27 04:54:24;;;;;;;9.80;5.80;;;;;;;13.99;87.20;101877.56;5006651;28;20435;-87
2022/05/27 04:56:49;;;;;;;9.38;5.97;;;;;;;14.06;87.33;101883.47;5000615;28;20119;-89
2022/05/27 04:59:15;;;;;;;12.20;6.97;;;;;;;14.12;87.18;101879.41;5001199;28;20124;-88
2022/05/27 05:01:41;;;;;;;12.05;6.82;;;;;;;14.12;87.31;101877.53;4999956;28;20049;-88
2022/05/27 05:04:06;;;;;;;10.73;6.18;;;;;;;14.17;87.52;101880.81;5002618;28;20040;-87
2022/05/27 05:06:32;;;;;;;12.30;7.18;;;;;;;14.34;87.57;101884.25;5005109;28;20040;-87
2022/05/27 05:08:57;;;;;;;15.25;6.93;;;;;;;14.49;87.65;101894.13;4993916;28;20021;-86
2022/05/27 05:11:23;;;;;;;15.77;7.47;;;;;;;14.61;86.95;101897.84;5009702;28;20366;-86
2022/05/27 05:13:49;;;;;;;13.65;5.95;;;;;;;14.63;87.06;101888.50;4999582;28;20161;-88
2022/05/27 05:16:14;;;;;;;11.60;6.28;;;;;;;14.66;86.77;101896.50;4988515;28;20107;-88
2022/05/27 05:18:39;;;;;;;15.82;7.57;;;;;;;14.69;86.63;101907.25;4999406;28;20048;-88
2022/05/27 05:21:05;;;;;;;17.02;6.75;;;;;;;14.74;86.62;101909.66;5008901;28;20065;-87
2022/05/27 05:23:30;;;;;;;19.65;6.63;;;;;;;14.82;88.09;101909.09;5010413;28;20078;-87
2022/05/27 05:25:55;;;;;;;14.55;5.85;;;;;;;14.94;85.40;101909.06;4978823;28;20033;-89
2022/05/27 05:28:21;;;;;;;15.18;6.75;;;;;;;14.99;85.06;101912.34;5009263;28;20041;-87
2022/05/27 05:30:47;;;;;;;15.80;5.80;;;;;;;14.95;85.85;101913.53;4979191;28;20034;-88
2022/05/27 05:33:12;;;;;;;16.35;5.80;;;;;;;14.96;84.69;101928.13;4991670;28;20030;-88
2022/05/27 05:35:38;;;;;;;16.63;6.10;;;;;;;14.97;85.67;101922.53;5010893;28;20037;-87
2022/05/27 05:38:04;;;;;;;13.43;5.53;;;;;;;14.98;85.33;101924.28;5019256;28;20362;-88
2022/05/27 05:40:30;;;;;;;11.88;5.43;;;;;;;15.01;85.39;101926.81;4992082;28;20041;-86
2022/05/27 05:42:55;;;;;;;13.05;5.65;;;;;;;15.05;84.53;101927.44;5009363;28;20049;-86
2022/05/27 05:45:21;;;;;;;14.25;5.30;;;;;;;15.05;84.98;101925.56;5009962;28;20476;-89
2022/05/27 05:47:46;;;;;;;12.70;5.22;;;;;;;15.19;84.10;101941.00;5027451;28;20041;-88
2022/05/27 05:50:13;;;;;;;8.50;4.68;;;;;;;15.25;83.99;101942.44;5027589;28;20052;-88
2022/05/27 05:52:42;;;;;;;15.15;4.93;;;;;;;15.28;82.83;101939.44;4987010;28;20029;-88
2022/05/27 05:55:09;;;;;;;10.45;4.35;;;;;;;15.37;82.69;101946.97;4991297;28;20103;-90
2022/05/27 05:57:42;;;;;;;14.18;4.95;;;;;;;15.43;83.33;101948.38;5007995;28;20044;-87
2022/05/27 06:00:10;;;;;;;10.25;4.35;;;;;;;15.66;82.49;101946.66;5009261;28;20037;-88
2022/05/27 06:02:38;;;;;;;11.95;4.25;;;;;;;15.66;81.47;101939.31;5009284;28;20396;-88
2022/05/27 06:05:04;;;;;;;10.15;4.30;;;;;;;15.73;82.04;101945.22;5012776;28;20029;-88
2022/05/27 06:07:31;;;;;;;12.95;4.35;;;;;;;15.74;79.94;101933.25;4988270;28;20131;-89
2022/05/27 06:09:57;;;;;;;19.73;4.80;;;;;;;15.72;80.12;101943.47;5027892;28;20182;-88
2022/05/27 06:12:24;;;;;;;13.10;4.07;;;;;;;15.53;80.01;101928.38;5002438;28;20530;-88
2022/05/27 06:14:53;;;;;;;9.30;3.50;;;;;;;15.57;80.25;101948.19;5000682;28;20852;-89
2022/05/27 06:17:20;;;;;;;11.85;3.90;;;;;;;15.62;79.11;101946.00;4981259;28;20079;-90
2022/05/27 06:19:45;;;;;;;8.90;3.00;;;;;;;15.61;79.25;101949.72;5011632;28;20029;-87
2022/05/27 06:22:11;;;;;;;9.65;3.75;;;;;;;15.69;78.58;101950.06;5026966;28;20056;-88
2022/05/27 06:24:37;;;;;;;7.68;3.38;;;;;;;15.66;76.40;101950.28;5022904;28;20143;-88
2022/05/27 06:27:07;;;;;;;11.20;3.22;;;;;;;15.56;77.01;101951.94;5007237;28;20034;-87
2022/05/27 06:35:01;;;;;;;9.77;2.83;;;;;;;15.52;76.46;101953.16;5012499;28;20124;-86
2022/05/27 06:37:27;;;;;;;5.75;2.60;;;;;;;15.36;74.78;101950.72;4996888;28;20492;-87
2022/05/27 06:39:54;;;;;;;12.73;3.05;;;;;;;15.26;74.46;101955.13;5016410;28;20040;-91
2022/05/27 06:42:20;;;;;;;5.03;2.53;;;;;;;15.22;74.58;101959.09;4998883;28;20029;-89
2022/05/27 06:44:45;;;;;;;11.25;2.35;;;;;;;15.21;73.23;101963.72;5011452;28;20448;-86
2022/05/27 06:47:12;;;;;;;5.72;2.22;;;;;;;15.14;74.34;101953.31;5015503;28;20037;-88
2022/05/27 06:49:38;;;;;;;14.80;2.92;;;;;;;15.17;75.19;101962.19;4987999;28;20060;-89
2022/05/27 06:52:04;;;;;;;8.23;2.85;;;;;;;15.16;74.02;101952.22;5010211;28;20168;-89
2022/05/27 06:54:35;;;;;;;6.10;2.33;;;;;;;15.21;75.55;101951.88;5009161;28;20037;-89
2022/05/27 06:57:03;;;;;;;5.40;2.75;;;;;;;15.22;74.48;101957.22;5025683;28;20075;-90
2022/05/27 06:59:29;;;;;;;7.85;2.97;;;;;;;15.36;76.40;101955.31;5007523;28;20518;-89
2022/05/27 07:01:56;;;;;;;6.03;2.15;;;;;;;15.51;75.95;101962.41;4996013;28;20053;-86
2022/05/27 07:04:21;;;;;;;10.98;2.70;;;;;;;15.66;73.58;101964.00;5004499;28;20111;-88
2022/05/27 07:06:48;;;;;;;8.02;2.42;;;;;;;15.73;72.43;101972.66;4984679;28;20036;-87
2022/05/27 07:09:17;;;;;;;6.50;2.17;;;;;;;15.72;71.38;101966.28;5011500;28;20037;-87
2022/05/27 07:11:46;;;;;;;5.18;2.20;;;;;;;15.79;71.97;101966.69;5011826;28;20065;-88
2022/05/27 07:14:13;;;;;;;6.68;2.60;;;;;;;15.92;72.70;101961.16;5014274;28;20103;-89
2022/05/27 07:16:39;;;;;;;9.38;2.28;;;;;;;16.00;71.38;101965.06;4995302;28;20041;-88
2022/05/27 07:19:05;;;;;;;10.95;2.28;;;;;;;15.92;69.28;101967.50;5013390;28;20081;-89
2022/05/27 07:21:31;;;;;;;8.57;2.50;;;;;;;15.87;71.91;101972.47;5001024;28;20097;-89
2022/05/27 07:23:57;;;;;;;10.55;2.42;;;;;;;15.76;72.15;101962.34;4997204;28;20037;-86
2022/05/27 07:26:24;;;;;;;8.48;2.50;;;;;;;15.79;71.57;101964.81;5005625;28;20420;-90
2022/05/27 07:28:50;;;;;;;10.88;3.00;;;;;;;15.91;73.96;101968.50;5005949;28;20037;-87
2022/05/27 07:31:17;;;;;;;7.97;3.22;;;;;;;15.99;74.19;101971.53;4997442;28;20036;-90
2022/05/27 07:33:44;;;;;;;10.82;2.72;;;;;;;16.06;73.06;101963.69;4999657;28;20042;-87
2022/05/27 07:36:10;;;;;;;12.85;2.70;;;;;;;16.18;72.81;101964.59;4998708;28;20041;-87
2022/05/27 07:38:36;;;;;;;7.88;2.88;;;;;;;16.32;71.78;101961.66;5006403;28;20083;-89
2022/05/27 07:41:02;;;;;;;8.13;2.83;;;;;;;16.43;71.02;101960.81;5019512;28;20334;-88
2022/05/27 07:43:27;;;;;;;6.65;2.72;;;;;;;16.41;70.71;101971.03;4993525;28;20028;-89
2022/05/27 07:45:53;;;;;;;10.80;2.92;;;;;;;16.25;70.53;101982.34;4994092;28;20037;-88
2022/05/27 07:48:18;;;;;;;11.27;3.00;;;;;;;16.11;69.92;101983.41;5012776;28;20106;-90
2022/05/27 07:50:44;;;;;;;7.15;2.30;;;;;;;16.06;68.99;101994.75;5005456;28;20048;-91
2022/05/27 07:53:11;;;;;;;7.00;2.38;;;;;;;16.00;71.38;101992.50;5008961;28;20384;-92
2022/05/27 07:55:36;;;;;;;9.30;2.47;;;;;;;15.87;68.89;101997.19;5011022;28;20052;-90
2022/05/27 07:58:02;;;;;;;9.32;2.67;;;;;;;16.01;73.03;101986.00;5033868;28;20065;-89
2022/05/27 08:00:31;;;;;;;14.48;2.55;;;;;;;16.26;68.84;101973.09;5015576;28;20443;-93
2022/05/27 08:03:03;;;;;;;9.23;2.25;;;;;;;16.40;68.40;101972.03;5017810;28;20079;-90
2022/05/27 08:05:36;;;;;;;9.35;2.53;;;;;;;16.67;68.07;101993.69;5003952;28;20057;-93
2022/05/27 08:08:04;;;;;;;11.45;2.42;;;;;;;16.46;66.62;101972.44;5019736;28;20060;-90
2022/05/27 08:10:34;;;;;;;11.38;2.63;;;;;;;16.28;67.16;101955.53;5002046;28;20033;-92
2022/05/27 08:13:00;;;;;;;10.15;1.80;;;;;;;16.27;67.32;101975.75;5011398;28;20133;-89
2022/05/27 08:15:27;;;;;;;10.43;2.58;;;;;;;16.36;66.63;101984.25;5000831;28;20048;-88
2022/05/27 08:17:54;;;;;;;7.68;2.30;;;;;;;16.93;70.23;101999.88;5011319;28;20473;-91
2022/05/27 08:20:24;;;;;;;7.35;2.63;;;;;;;17.35;65.53;102001.00;5005689;28;20048;-90
2022/05/27 08:22:53;;;;;;;9.73;2.70;;;;;;;17.56;64.47;101996.44;5015786;28;20097;-89
2022/05/27 08:25:22;;;;;;;8.52;2.60;;;;;;;17.74;63.09;101994.06;5017055;28;20037;-89
2022/05/27 08:27:48;;;;;;;7.78;2.88;;;;;;;18.30;63.99;101991.06;5006803;28;20028;-93
2022/05/27 08:30:34;;;;;;;10.60;2.72;;;;;;;18.44;63.75;101986.25;5019337;28;20044;-89
2022/05/27 08:33:00;;;;;;;9.90;2.92;;;;;;;18.95;61.34;101988.16;5008969;28;20101;-91
2022/05/27 08:38:20;;;;;;;7.13;2.90;;;;;;;19.49;54.98;101976.75;5008942;28;20049;-90
2022/05/27 08:41:14;;;;;;;8.07;2.53;;;;;;;19.12;59.14;102012.38;5017168;28;20041;-91
2022/05/27 08:44:13;;;;;;;7.20;2.30;;;;;;;18.36;60.34;101981.38;5008448;28;20075;-92
2022/05/27 08:47:02;;;;;;;8.25;2.35;;;;;;;17.93;60.86;101990.59;5005529;28;20042;-91
2022/05/27 08:49:35;;;;;;;14.20;2.40;;;;;;;17.99;61.88;102011.22;5007313;28;20025;-91
2022/05/27 08:52:28;;;;;;;9.90;2.58;;;;;;;17.77;60.89;102003.94;5015981;28;20060;-89
2022/05/27 09:01:14;;;;;;;7.95;2.90;;;;;;;18.47;57.89;102011.66;5005858;28;20048;-91
2022/05/27 09:03:46;;;;;;;11.25;2.72;;;;;;;18.50;57.11;101996.72;4999719;28;20507;-90
2022/05/27 09:06:20;;;;;;;7.95;2.95;;;;;;;18.88;60.68;102004.38;5001554;28;20893;-90
2022/05/27 09:08:46;;;;;;;7.95;2.80;;;;;;;19.11;57.40;101994.91;5003667;28;20033;-89
2022/05/27 09:12:02;;;;;;;9.25;2.50;;;;;;;19.18;55.51;102016.44;5015950;28;20037;-90
2022/05/27 09:14:31;;;;;;;11.30;2.75;;;;;;;18.96;54.93;102003.69;4986364;28;20104;-90
2022/05/27 09:17:03;;;;;;;4.72;2.60;;;;;;;19.38;54.53;102021.88;5015521;28;20044;-93
2022/05/27 09:19:49;;;;;;;6.70;2.53;;;;;;;19.57;52.78;101995.34;5009394;28;20037;-90
2022/05/27 09:22:26;;;;;;;6.97;2.40;;;;;;;20.20;54.09;102026.31;5005866;28;20034;-89
2022/05/27 09:25:20;;;;;;;7.55;2.70;;;;;;;20.66;54.34;102030.25;5019320;28;20038;-92
2022/05/27 09:28:05;;;;;;;10.18;2.63;;;;;;;20.51;49.09;102029.81;4999874;28;20040;-92
2022/05/27 09:30:34;;;;;;;9.68;2.45;;;;;;;20.16;50.70;102030.38;5026287;28;20037;-88
2022/05/27 09:33:12;;;;;;;12.02;2.55;;;;;;;19.51;49.54;102026.28;5014213;28;20030;-89
2022/05/27 09:36:04;;;;;;;6.60;3.00;;;;;;;19.17;52.90;102037.66;5028838;28;20410;-90
2022/05/27 09:38:35;;;;;;;7.30;2.67;;;;;;;19.09;51.87;102023.66;5004121;28;20564;-88
2022/05/27 09:41:12;;;;;;;8.57;2.70;;;;;;;19.11;51.05;102050.06;4999343;28;20092;-90
2022/05/27 09:43:49;;;;;;;9.25;2.55;;;;;;;19.01;53.53;102057.44;4994014;28;20051;-91
2022/05/27 09:46:26;;;;;;;11.05;2.67;;;;;;;19.09;53.86;102040.22;5019301;28;20041;-90
2022/05/27 09:48:57;;;;;;;6.97;2.38;;;;;;;19.37;52.84;102060.69;5018825;28;20719;-93
2022/05/27 09:51:27;;;;;;;6.30;2.42;;;;;;;19.49;51.64;102031.97;5002875;28;20041;-87
2022/05/27 09:53:57;;;;;;;10.43;2.20;;;;;;;19.98;52.84;102035.72;4993097;28;20018;-92
2022/05/27 09:56:43;;;;;;;6.65;2.38;;;;;;;20.18;50.51;102057.84;5008454;28;20045;-90
2022/05/27 09:59:56;;;;;;;9.57;2.58;;;;;;;19.83;50.52;102029.75;4996127;28;20053;-90
2022/05/27 10:02:40;;;;;;;9.18;2.22;;;;;;;19.40;48.46;102035.56;5000273;28;20105;-94
2022/05/27 10:05:33;;;;;;;10.25;2.78;;;;;;;19.37;49.22;102071.72;5010597;28;20121;-91
2022/05/27 10:08:10;;;;;;;4.65;2.15;;;;;;;19.32;47.94;102047.28;5021933;28;20076;-91
2022/05/27 10:10:39;;;;;;;6.68;2.50;;;;;;;19.61;47.14;102041.91;5007058;28;20064;-90
2022/05/27 10:13:43;;;;;;;8.20;2.67;;;;;;;19.51;48.83;102043.72;5022383;28;20025;-90
2022/05/27 10:16:24;;;;;;;7.15;2.83;;;;;;;19.12;47.23;102067.53;5009283;28;20107;-88
2022/05/27 10:19:13;;;;;;;11.43;2.67;;;;;;;19.31;49.68;102056.59;5027070;28;20033;-93
2022/05/27 10:22:28;;;;;;;;;;;;;;;;;;;;;
2022/05/27 10:25:12;;;;;;;10.55;2.30;;;;;;;19.79;46.13;102039.34;5022393;28;20098;-89
2022/05/27 10:28:09;;;;;;;10.38;3.20;;;;;;;20.32;46.78;102066.59;5038226;28;20085;-88
2022/05/27 10:31:16;;;;;;;9.25;3.03;;;;;;;20.17;47.01;102042.31;5019436;28;20052;-93
2022/05/27 10:33:47;;;;;;;9.38;2.85;;;;;;;20.51;47.14;102064.88;4978927;28;20042;-90
2022/05/27 10:37:00;;;;;;;11.48;2.80;;;;;;;20.60;45.71;102061.22;4960974;28;20066;-90
2022/05/27 10:40:43;;;;;;;9.80;2.90;;;;;;;20.70;45.54;102037.19;4973913;28;20098;-91
2022/05/27 10:43:44;;;;;;;7.72;2.33;;;;;;;20.62;42.68;102078.56;4895916;29;20044;-89
2022/05/27 10:46:46;;;;;;;7.20;2.28;;;;;;;20.33;43.91;102060.06;4899493;29;20063;-89
2022/05/27 10:49:50;;;;;;;10.38;2.30;;;;;;;20.36;44.27;102064.41;4900886;29;20052;-92
2022/05/27 10:52:47;;;;;;;6.32;2.28;;;;;;;20.34;44.83;102067.34;4916800;29;20045;-93
2022/05/27 10:56:05;;;;;;;;;;;;;;;;;;;;;
2022/05/27 11:03:19;;;;;;;8.77;2.63;;;;;;;20.58;46.83;102077.09;4901819;29;20112;-92
2022/05/27 11:06:21;;;;;;;8.80;2.70;;;;;;;20.77;45.52;102059.63;4919946;29;20112;-91
2022/05/27 11:17:19;;;;;;;7.05;2.42;;;;;;;21.50;41.61;102041.34;4861012;29;20109;-90
2022/05/27 11:20:39;;;;;;;;;;;;;;;;;;;;;
2022/05/27 11:24:08;;;;;;;;;;;;;;;;;;;;;
2022/05/27 11:27:22;;;;;;;10.38;2.30;;;;;;;20.24;43.62;102076.66;4879097;29;20053;-93
2022/05/27 11:34:52;;;;;;;11.45;3.30;;;;;;;19.54;47.47;102086.75;4899496;29;20032;-91
2022/05/27 11:37:52;;;;;;;8.82;2.97;;;;;;;19.82;45.49;102069.44;4902592;29;20094;-93
2022/05/27 11:40:53;;;;;;;9.15;2.58;;;;;;;20.41;46.65;102088.84;4877961;29;20044;-91
2022/05/27 11:43:53;;;;;;;9.95;2.47;;;;;;;20.67;45.99;102076.22;4924173;28;20078;-90
2022/05/27 11:46:55;;;;;;;12.27;2.88;;;;;;;21.21;47.58;102082.94;4931604;28;20437;-92
2022/05/27 11:53:58;;;;;;;8.23;2.00;;;;;;;21.29;44.16;102087.75;5028648;28;20105;-91
2022/05/27 11:56:55;;;;;;;11.25;2.67;;;;;;;21.25;42.11;102089.06;5016739;28;20077;-93
2022/05/27 12:00:12;;;;;;;9.05;2.50;;;;;;;21.39;40.25;102094.16;4999953;28;20092;-93
2022/05/27 12:03:26;;;;;;;11.98;2.30;;;;;;;20.52;40.53;102063.88;5019763;28;20045;-92
2022/05/27 12:06:23;;;;;;;14.02;2.88;;;;;;;20.61;43.86;102065.72;5013927;28;20120;-92
2022/05/27 12:09:28;;;;;;;8.52;2.92;;;;;;;20.35;42.15;102058.00;5020102;28;20168;-92
2022/05/27 12:12:09;;;;;;;11.82;2.53;;;;;;;20.38;43.81;102057.72;5019807;28;20101;-92
2022/05/27 12:18:59;;;;;;;9.68;2.65;;;;;;;21.02;43.98;102094.94;5007289;28;20149;-90
2022/05/27 12:21:33;;;;;;;8.23;2.10;;;;;;;20.78;41.53;102097.31;4999608;28;20045;-90
2022/05/27 12:24:12;;;;;;;8.38;3.00;;;;;;;20.30;42.61;102087.13;4996323;28;20042;-92
2022/05/27 12:27:03;;;;;;;13.43;2.33;;;;;;;20.70;43.44;102100.81;5033506;28;20041;-91
2022/05/27 12:29:33;;;;;;;7.25;2.58;;;;;;;20.43;40.85;102065.59;5031958;28;20033;-91
2022/05/27 12:35:32;;;;;;;6.97;2.30;;;;;;;20.28;43.13;102092.75;5015476;28;20029;-90
2022/05/27 12:38:30;;;;;;;6.32;2.20;;;;;;;20.19;42.78;102082.59;5009635;28;20034;-89
2022/05/27 12:41:08;;;;;;;7.22;2.08;;;;;;;20.55;45.85;102081.03;5010502;28;20111;-93
2022/05/27 12:43:37;;;;;;;5.55;2.38;;;;;;;20.95;42.48;102079.97;5015644;28;20048;-91
2022/05/27 12:46:33;;;;;;;6.85;2.05;;;;;;;20.84;43.09;102091.19;5015660;28;20033;-89
2022/05/27 12:49:38;;;;;;;11.10;2.33;;;;;;;20.63;43.96;102094.13;5025781;28;20025;-91
2022/05/27 12:52:35;;;;;;;12.23;2.78;;;;;;;20.55;43.59;102089.31;5013738;28;20038;-90
2022/05/27 12:55:04;;;;;;;11.93;2.45;;;;;;;;;;5015459;28;20128;-92
2022/05/27 13:01:00;;;;;;;14.48;2.95;;;;;;;20.11;41.68;102085.19;5008247;28;20060;-91
2022/05/27 13:03:38;;;;;;;11.07;2.60;;;;;;;20.09;43.33;102118.47;5007930;28;20033;-88
2022/05/27 13:06:14;;;;;;;8.13;2.50;;;;;;;20.46;43.96;102114.16;5015854;28;20037;-89
2022/05/27 13:09:07;;;;;;;8.70;2.35;;;;;;;20.59;42.35;102076.94;4998570;28;20056;-91
2022/05/27 13:11:38;;;;;;;6.60;2.47;;;;;;;20.99;43.91;102100.78;5001578;28;20055;-92